createdAt,value
2022-11-27T00:02:14.808Z,31.63
2022-11-27T00:07:17.521Z,32.70
2022-11-27T00:12:20.158Z,21.70
2022-11-27T00:17:22.714Z,24.67
2022-11-27T00:22:26.796Z,25.97
2022-11-27T00:27:29.370Z,25.48
2022-11-27T00:32:31.951Z,23.27
2022-11-27T00:37:34.573Z,31.02
2022-11-27T00:42:37.253Z,32.72
2022-11-27T00:47:39.944Z,28.50
2022-11-27T00:52:42.715Z,28.98
2022-11-27T00:57:45.514Z,26.43
2022-11-27T01:02:48.158Z,25.10
2022-11-27T01:07:51.294Z,25.10
2022-11-27T01:12:53.903Z,25.97
2022-11-27T01:17:56.534Z,24.95
2022-11-27T01:22:59.163Z,28.80
2022-11-27T01:28:01.825Z,24.05
2022-11-27T01:33:04.514Z,27.45
2022-11-27T01:38:07.122Z,31.27
2022-11-27T01:43:16.985Z,33.10
2022-11-27T01:48:19.654Z,31.93
2022-11-27T01:53:22.411Z,29.15
2022-11-27T01:58:30.692Z,28.13
2022-11-27T02:03:33.707Z,24.67
2022-11-27T02:08:36.604Z,26.83
2022-11-27T02:13:53.175Z,25.33
2022-11-27T02:19:13.765Z,25.85
2022-11-27T02:24:35.190Z,19.00
2022-11-27T02:29:41.099Z,28.37
2022-11-27T02:34:48.915Z,23.83
2022-11-27T02:40:26.360Z,20.93
2022-11-27T02:45:43.000Z,25.20
2022-11-27T02:50:49.296Z,27.63
2022-11-27T02:55:53.723Z,27.53
2022-11-27T03:00:57.684Z,34.85
2022-11-27T03:06:09.366Z,24.50
2022-11-27T03:11:15.226Z,36.40
2022-11-27T03:16:25.086Z,25.92
2022-11-27T03:21:45.608Z,25.43
2022-11-27T03:26:49.864Z,19.08
2022-11-27T03:31:52.975Z,18.30
2022-11-27T03:36:55.754Z,18.30
2022-11-27T03:42:15.054Z,18.75
2022-11-27T03:47:28.344Z,19.10
2022-11-27T03:52:48.494Z,19.08
2022-11-27T03:57:54.060Z,20.90
2022-11-27T04:02:56.699Z,20.60
2022-11-27T04:07:59.271Z,18.27
2022-11-27T04:13:01.914Z,16.87
2022-11-27T04:18:04.917Z,19.08
2022-11-27T04:23:07.543Z,18.80
2022-11-27T04:28:10.257Z,18.70
2022-11-27T04:33:12.889Z,23.00
2022-11-27T04:38:15.617Z,16.40
2022-11-27T04:43:18.157Z,15.18
2022-11-27T04:48:20.731Z,17.63
2022-11-27T04:53:23.360Z,16.83
2022-11-27T04:58:26.248Z,20.45
2022-11-27T05:03:28.845Z,23.17
2022-11-27T05:08:33.597Z,19.45
2022-11-27T05:13:36.333Z,15.70
2022-11-27T05:18:38.904Z,20.45
2022-11-27T05:23:41.401Z,18.52
2022-11-27T05:28:43.932Z,13.80
2022-11-27T05:33:46.468Z,13.20
2022-11-27T05:38:49.374Z,17.53
2022-11-27T05:43:52.001Z,22.00
2022-11-27T05:48:54.579Z,18.67
2022-11-27T05:53:57.154Z,13.97
2022-11-27T05:58:59.958Z,22.30
2022-11-27T06:04:02.586Z,17.53
2022-11-27T06:09:10.853Z,19.98
2022-11-27T06:14:15.329Z,19.17
2022-11-27T06:19:17.974Z,17.53
2022-11-27T06:24:20.562Z,18.60
2022-11-27T06:29:23.163Z,15.10
2022-11-27T06:34:25.783Z,17.08
2022-11-27T06:39:28.573Z,24.00
2022-11-27T06:44:31.143Z,21.83
2022-11-27T06:49:33.784Z,17.85
2022-11-27T06:54:36.353Z,17.43
2022-11-27T06:59:38.902Z,18.02
2022-11-27T07:04:41.833Z,19.92
2022-11-27T07:09:44.605Z,20.80
2022-11-27T07:14:47.139Z,18.83
2022-11-27T07:19:49.703Z,16.97
2022-11-27T07:24:52.294Z,16.73
2022-11-27T07:29:54.970Z,14.32
2022-11-27T07:34:57.584Z,12.93
2022-11-27T07:40:03.181Z,18.70
2022-11-27T07:45:08.388Z,12.63
2022-11-27T07:50:11.696Z,14.35
2022-11-27T07:55:14.695Z,13.27
2022-11-27T08:00:17.796Z,11.03
2022-11-27T08:05:20.461Z,13.82
2022-11-27T08:10:23.214Z,20.03
2022-11-27T08:15:25.810Z,23.83
2022-11-27T08:20:28.516Z,20.13
2022-11-27T08:25:32.132Z,23.90
2022-11-27T08:30:34.802Z,20.17
2022-11-27T08:35:37.374Z,22.33
2022-11-27T08:40:40.384Z,28.83
2022-11-27T08:45:42.994Z,20.73
2022-11-27T08:50:46.295Z,20.60
2022-11-27T08:55:48.982Z,20.08
2022-11-27T09:00:51.740Z,15.00
2022-11-27T09:05:54.439Z,10.43
2022-11-27T09:11:01.521Z,12.30
2022-11-27T09:16:12.452Z,13.50
2022-11-27T09:21:16.839Z,12.63
2022-11-27T09:26:19.624Z,14.33
2022-11-27T09:31:23.157Z,17.08
2022-11-27T09:36:27.101Z,17.45
2022-11-27T09:41:39.887Z,14.40
2022-11-27T09:46:43.783Z,14.02
2022-11-27T09:52:10.725Z,13.90
2022-11-27T09:57:21.952Z,15.13
2022-11-27T10:02:34.043Z,12.68
2022-11-27T10:07:48.982Z,16.27
2022-11-27T10:13:07.741Z,15.00
2022-11-27T10:18:40.182Z,13.50
2022-11-27T10:24:06.160Z,16.02
2022-11-27T10:29:27.692Z,16.75
2022-11-27T10:34:54.965Z,19.70
2022-11-27T10:40:06.682Z,29.58
2022-11-27T10:45:30.760Z,23.73
2022-11-27T10:50:34.171Z,24.83
2022-11-27T10:55:54.759Z,21.83
2022-11-27T11:01:02.298Z,14.30
2022-11-27T11:06:24.999Z,16.23
2022-11-27T11:11:28.333Z,17.17
2022-11-27T11:16:35.239Z,16.30
2022-11-27T11:21:45.375Z,16.85
2022-11-27T11:26:51.441Z,17.23
2022-11-27T11:31:57.298Z,14.18
2022-11-27T11:37:04.716Z,12.30
2022-11-27T11:42:18.824Z,12.77
2022-11-27T11:47:25.306Z,15.75
2022-11-27T11:52:54.139Z,15.03
2022-11-27T11:58:15.461Z,15.25
2022-11-27T12:03:39.662Z,13.20
2022-11-27T12:08:51.900Z,11.35
2022-11-27T12:14:02.640Z,12.02
2022-11-27T12:19:37.789Z,15.23
2022-11-27T12:25:10.618Z,11.85
2022-11-27T12:30:36.530Z,8.43
2022-11-27T12:36:18.191Z,9.98
2022-11-27T12:41:57.651Z,12.63
2022-11-27T12:47:04.009Z,10.97
2022-11-27T12:52:17.190Z,8.68
2022-11-27T12:57:43.068Z,13.60
2022-11-27T13:02:54.622Z,16.10
2022-11-27T13:08:13.433Z,18.70
2022-11-27T13:13:42.260Z,18.50
2022-11-27T13:19:00.249Z,20.30
2022-11-27T13:24:04.202Z,11.20
2022-11-27T13:29:37.313Z,17.77
2022-11-27T13:34:47.061Z,16.25
2022-11-27T13:39:49.709Z,20.37
2022-11-27T13:45:06.464Z,31.33
2022-11-27T13:50:14.142Z,22.87
2022-11-27T13:55:28.610Z,19.92
2022-11-27T14:00:43.630Z,22.42
2022-11-27T14:05:46.532Z,20.63
2022-11-27T14:11:00.959Z,29.42
2022-11-27T14:16:08.609Z,24.90
2022-11-27T14:21:25.282Z,28.15
2022-11-27T14:26:27.990Z,33.22
2022-11-27T14:31:38.862Z,26.73
2022-11-27T14:36:42.419Z,25.23
2022-11-27T14:41:45.141Z,24.07
2022-11-27T14:46:48.580Z,26.13
2022-11-27T14:51:52.072Z,25.08
2022-11-27T14:56:56.501Z,25.30
2022-11-27T15:02:10.872Z,21.83
2022-11-27T15:07:28.227Z,30.33
2022-11-27T15:12:34.789Z,29.75
2022-11-27T15:17:39.820Z,53.10
2022-11-27T15:22:54.331Z,33.47
2022-11-27T15:27:57.137Z,22.27
2022-11-27T15:33:00.682Z,66.43
2022-11-27T15:38:18.678Z,36.20
2022-11-27T15:43:21.359Z,30.67
2022-11-27T15:48:24.097Z,28.63
2022-11-27T15:53:26.950Z,29.60
2022-11-27T15:58:29.857Z,34.00
2022-11-27T16:03:32.461Z,35.33
2022-11-27T16:08:35.452Z,51.35
2022-11-27T16:13:38.139Z,41.57
2022-11-27T16:18:40.849Z,52.15
2022-11-27T16:23:44.342Z,43.80
2022-11-27T16:28:47.245Z,38.17
2022-11-27T16:33:51.653Z,38.30
2022-11-27T16:38:56.669Z,36.03
2022-11-27T16:44:00.279Z,39.42
2022-11-27T16:49:06.791Z,42.17
2022-11-27T16:54:12.021Z,35.85
2022-11-27T16:59:17.381Z,38.75
2022-11-27T17:04:21.670Z,34.67
2022-11-27T17:09:29.467Z,35.58
2022-11-27T17:14:32.160Z,38.57
2022-11-27T17:19:34.906Z,50.80
2022-11-27T17:24:37.902Z,42.17
2022-11-27T17:29:42.594Z,41.10
2022-11-27T17:34:45.839Z,42.17
2022-11-27T17:39:48.800Z,43.70
2022-11-27T17:44:51.858Z,41.65
2022-11-27T17:49:54.490Z,34.50
2022-11-27T17:54:57.216Z,43.90
2022-11-27T18:00:00.183Z,42.28
2022-11-27T18:05:03.042Z,34.07
2022-11-27T18:10:07.324Z,47.70
2022-11-27T18:15:10.515Z,50.88
2022-11-27T18:20:13.632Z,42.37
2022-11-27T18:25:16.540Z,42.30
2022-11-27T18:30:19.363Z,40.87
2022-11-27T18:35:24.219Z,51.70
2022-11-27T18:40:27.102Z,51.97
2022-11-27T18:45:33.483Z,51.57
2022-11-27T18:50:37.253Z,54.70
2022-11-27T18:55:39.990Z,56.67
2022-11-27T19:00:44.978Z,63.00
2022-11-27T19:05:47.673Z,49.35
2022-11-27T19:10:50.552Z,58.67
2022-11-27T19:15:53.569Z,54.58
2022-11-27T19:20:57.094Z,46.30
2022-11-27T19:26:05.497Z,59.20
2022-11-27T19:31:10.922Z,57.08
2022-11-27T19:36:14.899Z,48.27
2022-11-27T19:41:19.179Z,42.80
2022-11-27T19:46:27.635Z,48.93
2022-11-27T19:51:35.405Z,41.13
2022-11-27T19:56:40.293Z,51.55
2022-11-27T20:01:43.411Z,35.37
2022-11-27T20:06:46.189Z,47.33
2022-11-27T20:11:49.211Z,37.27
2022-11-27T20:16:52.154Z,38.65
2022-11-27T20:21:55.487Z,40.83
2022-11-27T20:26:58.852Z,20.20
2022-11-27T20:32:01.912Z,25.42
2022-11-27T20:37:04.866Z,22.30
2022-11-27T20:42:08.086Z,25.33
2022-11-27T20:47:12.290Z,26.65
2022-11-27T20:52:15.574Z,18.63
2022-11-27T20:57:18.541Z,15.40
2022-11-27T21:02:21.469Z,17.43
2022-11-27T21:07:24.892Z,24.90
2022-11-27T21:12:27.705Z,18.83
2022-11-27T21:17:30.925Z,21.43
2022-11-27T21:22:34.101Z,18.63
2022-11-27T21:27:38.031Z,26.57
2022-11-27T21:32:40.698Z,35.42
2022-11-27T21:37:44.206Z,35.38
2022-11-27T21:42:46.852Z,36.93
2022-11-27T21:47:49.491Z,36.00
2022-11-27T21:52:53.612Z,32.60
2022-11-27T21:57:56.813Z,30.60
2022-11-27T22:02:59.582Z,33.17
2022-11-27T22:13:22.702Z,38.03
2022-11-27T22:18:25.422Z,34.57
2022-11-27T22:23:28.424Z,34.33
2022-11-27T22:28:31.496Z,36.08
2022-11-27T22:33:35.714Z,31.33
2022-11-27T22:38:38.975Z,31.13
2022-11-27T22:43:41.948Z,31.70
2022-11-27T22:48:45.406Z,27.15
2022-11-27T22:53:48.292Z,31.13
2022-11-27T22:58:58.278Z,20.27
2022-11-27T23:04:09.572Z,30.52
2022-11-27T23:09:12.655Z,25.70
2022-11-27T23:14:15.567Z,26.23
2022-11-27T23:19:18.227Z,25.38
2022-11-27T23:24:21.166Z,26.90
2022-11-27T23:29:23.753Z,28.65
2022-11-27T23:34:26.344Z,27.97
2022-11-27T23:39:29.091Z,31.67
2022-11-27T23:44:31.665Z,34.35
2022-11-27T23:49:34.527Z,35.17
2022-11-27T23:54:37.075Z,29.27
2022-11-27T23:59:39.754Z,34.07
